createdAt,value
2018-07-02T00:02:02.271Z,17.30
2018-07-02T00:04:29.911Z,17.30
2018-07-02T00:07:08.917Z,17.20
2018-07-02T00:09:36.517Z,17.10
2018-07-02T00:12:04.178Z,17.10
2018-07-02T00:14:31.843Z,17.00
2018-07-02T00:16:59.497Z,16.90
2018-07-02T00:19:27.108Z,17.00
2018-07-02T00:21:54.888Z,16.90
2018-07-02T00:24:22.551Z,16.90
2018-07-02T00:29:17.731Z,16.80
2018-07-02T00:31:45.327Z,16.80
2018-07-02T00:34:13.006Z,16.80
2018-07-02T00:39:48.174Z,16.70
2018-07-02T00:42:16.373Z,16.60
2018-07-02T00:44:43.962Z,16.60
2018-07-02T00:47:11.536Z,16.50
2018-07-02T00:49:39.698Z,16.60
2018-07-02T00:52:07.291Z,16.50
2018-07-02T00:54:34.895Z,16.40
2018-07-02T00:57:02.491Z,16.40
2018-07-02T00:59:30.141Z,16.30
2018-07-02T01:04:27.068Z,16.30
2018-07-02T01:06:56.758Z,16.20
2018-07-02T01:09:24.351Z,16.20
2018-07-02T01:11:52.068Z,16.20
2018-07-02T01:14:19.676Z,16.20
2018-07-02T01:16:48.285Z,16.20
2018-07-02T01:19:16.655Z,16.10
2018-07-02T01:21:44.300Z,16.10
2018-07-02T01:24:11.869Z,16.10
2018-07-02T01:26:39.494Z,16.00
2018-07-02T01:29:07.084Z,15.90
2018-07-02T01:31:34.783Z,15.90
2018-07-02T01:34:02.428Z,15.80
2018-07-02T01:36:30.021Z,15.80
2018-07-02T01:38:57.729Z,15.80
2018-07-02T01:41:25.299Z,15.80
2018-07-02T01:43:52.892Z,15.70
2018-07-02T01:46:20.490Z,15.70
2018-07-02T01:48:48.115Z,15.60
2018-07-02T01:51:15.719Z,15.50
2018-07-02T01:53:43.358Z,15.50
2018-07-02T01:56:11.010Z,15.40
2018-07-02T01:58:38.611Z,15.40
2018-07-02T02:01:06.208Z,15.40
2018-07-02T02:03:33.819Z,15.40
2018-07-02T02:06:01.442Z,15.40
2018-07-02T02:08:29.068Z,15.40
2018-07-02T02:10:56.641Z,15.30
2018-07-02T02:13:24.247Z,15.40
2018-07-02T02:15:51.828Z,15.30
2018-07-02T02:18:19.407Z,15.30
2018-07-02T02:20:47.013Z,15.30
2018-07-02T02:23:14.596Z,15.20
2018-07-02T02:25:42.291Z,15.20
2018-07-02T02:28:09.908Z,15.20
2018-07-02T02:30:37.607Z,15.20
2018-07-02T02:33:06.206Z,15.20
2018-07-02T02:35:33.752Z,15.10
2018-07-02T02:38:01.448Z,15.10
2018-07-02T02:40:29.074Z,15.10
2018-07-02T02:42:56.662Z,15.10
2018-07-02T02:45:24.300Z,15.00
2018-07-02T02:50:19.515Z,15.00
2018-07-02T02:52:47.150Z,15.00
2018-07-02T02:55:21.312Z,15.00
2018-07-02T02:57:48.919Z,14.90
2018-07-02T03:00:16.512Z,14.90
2018-07-02T03:02:44.137Z,14.90
2018-07-02T03:05:11.788Z,14.90
2018-07-02T03:07:40.383Z,14.80
2018-07-02T03:10:07.998Z,14.80
2018-07-02T03:12:35.602Z,14.80
2018-07-02T03:15:03.288Z,14.80
2018-07-02T03:17:30.883Z,14.80
2018-07-02T03:19:59.435Z,14.70
2018-07-02T03:22:27.072Z,14.70
2018-07-02T03:24:54.697Z,14.70
2018-07-02T03:27:22.351Z,14.80
2018-07-02T03:29:49.938Z,14.70
2018-07-02T03:32:19.325Z,14.60
2018-07-02T03:34:46.892Z,14.60
2018-07-02T03:37:14.508Z,14.60
2018-07-02T03:39:42.148Z,14.60
2018-07-02T03:42:09.852Z,14.50
2018-07-02T03:44:37.448Z,14.60
2018-07-02T03:47:05.054Z,14.60
2018-07-02T03:49:33.299Z,14.60
2018-07-02T03:52:00.886Z,14.70
2018-07-02T03:54:28.520Z,14.70
2018-07-02T03:56:56.136Z,14.60
2018-07-02T03:59:23.744Z,14.70
2018-07-02T04:01:51.363Z,14.70
2018-07-02T04:04:18.976Z,14.70
2018-07-02T04:06:46.560Z,14.70
2018-07-02T04:09:14.194Z,14.70
2018-07-02T04:11:41.936Z,14.70
2018-07-02T04:14:09.634Z,14.70
2018-07-02T04:16:37.599Z,14.80
2018-07-02T04:19:09.070Z,14.80
2018-07-02T04:21:37.120Z,14.80
2018-07-02T04:24:04.847Z,14.90
2018-07-02T04:26:32.471Z,14.90
2018-07-02T04:29:00.111Z,15.00
2018-07-02T04:31:27.686Z,15.00
2018-07-02T04:36:22.798Z,15.10
2018-07-02T04:38:50.487Z,15.20
2018-07-02T04:41:18.256Z,15.20
2018-07-02T04:43:45.897Z,15.30
2018-07-02T04:46:13.521Z,15.20
2018-07-02T04:48:41.163Z,15.30
2018-07-02T04:51:08.801Z,15.30
2018-07-02T04:53:36.387Z,15.40
2018-07-02T04:56:04.075Z,15.40
2018-07-02T04:58:31.668Z,15.50
2018-07-02T05:00:59.315Z,15.40
2018-07-02T05:03:26.881Z,15.50
2018-07-02T05:05:54.495Z,15.60
2018-07-02T05:08:22.053Z,15.60
2018-07-02T05:10:50.306Z,15.60
2018-07-02T05:13:17.963Z,15.80
2018-07-02T05:15:46.415Z,15.70
2018-07-02T05:18:14.040Z,15.80
2018-07-02T05:20:41.668Z,15.80
2018-07-02T05:23:09.312Z,15.90
2018-07-02T05:25:36.997Z,16.00
2018-07-02T05:28:04.671Z,16.00
2018-07-02T05:30:32.270Z,16.10
2018-07-02T05:32:59.888Z,16.10
2018-07-02T05:35:27.492Z,16.20
2018-07-02T05:37:55.192Z,16.20
2018-07-02T05:40:22.716Z,16.30
2018-07-02T05:42:50.351Z,16.30
2018-07-02T05:45:17.943Z,16.30
2018-07-02T05:47:45.558Z,16.40
2018-07-02T05:50:13.146Z,16.50
2018-07-02T05:52:40.801Z,16.50
2018-07-02T05:55:08.589Z,16.60
2018-07-02T05:57:36.165Z,16.70
2018-07-02T06:00:03.914Z,16.70
2018-07-02T06:02:31.498Z,16.80
2018-07-02T06:04:59.080Z,16.90
2018-07-02T06:07:26.628Z,17.00
2018-07-02T06:12:21.803Z,17.10
2018-07-02T06:14:49.978Z,17.20
2018-07-02T06:17:17.589Z,17.30
2018-07-02T06:19:45.175Z,17.30
2018-07-02T06:22:12.831Z,17.40
2018-07-02T06:24:40.431Z,17.50
2018-07-02T06:27:09.063Z,17.50
2018-07-02T06:29:36.765Z,17.60
2018-07-02T06:32:05.152Z,17.70
2018-07-02T06:34:32.907Z,17.80
2018-07-02T06:37:00.579Z,17.90
2018-07-02T06:39:28.218Z,18.00
2018-07-02T06:41:55.926Z,18.00
2018-07-02T06:44:23.601Z,18.10
2018-07-02T06:49:18.793Z,18.20
2018-07-02T06:51:46.386Z,18.20
2018-07-02T06:54:14.113Z,18.30
2018-07-02T06:56:41.774Z,18.40
2018-07-02T06:59:09.340Z,18.40
2018-07-02T07:04:04.710Z,18.60
2018-07-02T07:06:32.308Z,18.70
2018-07-02T07:08:59.894Z,18.80
2018-07-02T07:11:27.507Z,18.80
2018-07-02T07:13:55.087Z,18.80
2018-07-02T07:16:22.694Z,18.90
2018-07-02T07:18:50.351Z,19.00
2018-07-02T07:21:17.936Z,19.10
2018-07-02T07:23:45.543Z,19.20
2018-07-02T07:26:13.120Z,19.30
2018-07-02T07:28:40.782Z,19.40
2018-07-02T07:31:08.407Z,19.40
2018-07-02T07:33:36.054Z,19.50
2018-07-02T07:36:03.692Z,19.60
2018-07-02T07:38:31.790Z,19.70
2018-07-02T07:40:59.451Z,19.70
2018-07-02T07:43:27.702Z,19.90
2018-07-02T07:45:55.261Z,19.90
2018-07-02T07:48:22.888Z,20.00
2018-07-02T07:50:50.501Z,20.10
2018-07-02T07:53:18.124Z,20.10
2018-07-02T07:55:45.738Z,20.20
2018-07-02T07:58:13.868Z,20.30
2018-07-02T08:00:41.490Z,20.30
2018-07-02T08:03:09.155Z,20.50
2018-07-02T08:05:36.756Z,20.60
2018-07-02T08:08:04.374Z,20.60
2018-07-02T08:10:32.108Z,20.70
2018-07-02T08:12:59.696Z,20.80
2018-07-02T08:15:27.351Z,20.90
2018-07-02T08:17:55.051Z,20.90
2018-07-02T08:20:22.660Z,21.10
2018-07-02T08:22:50.284Z,21.10
2018-07-02T08:25:17.965Z,21.20
2018-07-02T08:27:45.620Z,21.30
2018-07-02T08:30:13.261Z,21.30
2018-07-02T08:32:40.870Z,21.40
2018-07-02T08:35:08.546Z,21.50
2018-07-02T08:37:36.195Z,21.60
2018-07-02T08:40:04.297Z,21.70
2018-07-02T08:42:31.900Z,21.70
2018-07-02T08:44:59.487Z,21.80
2018-07-02T08:47:27.184Z,21.90
2018-07-02T08:49:54.740Z,22.00
2018-07-02T08:52:22.347Z,22.10
2018-07-02T08:54:49.926Z,22.00
2018-07-02T08:57:17.512Z,22.20
2018-07-02T08:59:45.150Z,22.30
2018-07-02T09:02:12.772Z,22.40
2018-07-02T09:04:40.431Z,22.40
2018-07-02T09:07:08.086Z,22.50
2018-07-02T09:09:35.700Z,22.60
2018-07-02T09:12:08.438Z,22.70
2018-07-02T09:14:36.087Z,22.80
2018-07-02T09:17:03.796Z,22.80
2018-07-02T09:19:31.375Z,22.90
2018-07-02T09:21:58.998Z,23.00
2018-07-02T09:24:30.916Z,23.10
2018-07-02T09:26:58.553Z,23.20
2018-07-02T09:29:26.158Z,23.30
2018-07-02T09:31:53.821Z,23.40
2018-07-02T09:34:21.472Z,23.40
2018-07-02T09:36:49.044Z,23.50
2018-07-02T09:39:16.735Z,23.50
2018-07-02T09:41:45.043Z,23.70
2018-07-02T09:44:12.647Z,23.70
2018-07-02T09:46:40.228Z,23.80
2018-07-02T09:49:07.899Z,23.90
2018-07-02T09:51:35.578Z,23.90
2018-07-02T09:54:03.208Z,24.10
2018-07-02T09:56:31.490Z,24.10
2018-07-02T09:58:59.066Z,24.20
2018-07-02T10:01:26.820Z,24.30
2018-07-02T10:03:55.081Z,24.40
2018-07-02T10:06:24.427Z,24.50
2018-07-02T10:08:52.015Z,24.60
2018-07-02T10:11:19.669Z,24.60
2018-07-02T10:16:14.855Z,24.70
2018-07-02T10:18:42.569Z,24.80
2018-07-02T10:21:10.865Z,24.90
2018-07-02T10:23:38.535Z,25.00
2018-07-02T10:26:06.441Z,25.20
2018-07-02T10:28:34.079Z,25.30
2018-07-02T10:31:02.212Z,25.50
2018-07-02T10:33:29.801Z,25.60
2018-07-02T10:35:57.798Z,25.70
2018-07-02T10:38:25.400Z,25.90
2018-07-02T10:40:53.027Z,26.00
2018-07-02T10:43:20.622Z,26.20
2018-07-02T10:45:48.196Z,26.20
2018-07-02T10:48:15.929Z,26.40
2018-07-02T10:50:48.036Z,26.50
2018-07-02T10:53:15.740Z,26.60
2018-07-02T10:55:43.490Z,26.70
2018-07-02T11:01:48.086Z,26.80
2018-07-02T11:04:26.397Z,26.90
2018-07-02T11:07:04.207Z,26.90
2018-07-02T11:09:31.840Z,27.00
2018-07-02T11:11:59.405Z,27.10
2018-07-02T11:14:27.017Z,27.20
2018-07-02T11:16:54.564Z,27.40
2018-07-02T11:19:22.119Z,27.70
2018-07-02T11:22:02.102Z,27.80
2018-07-02T11:24:30.142Z,27.90
2018-07-02T11:29:33.976Z,28.20
2018-07-02T11:32:01.607Z,28.50
2018-07-02T11:34:29.164Z,28.70
2018-07-02T11:36:56.768Z,28.90
2018-07-02T11:39:24.372Z,29.20
2018-07-02T11:41:51.959Z,29.90
2018-07-02T11:44:19.596Z,31.20
2018-07-02T11:46:47.202Z,33.60
2018-07-02T11:49:14.880Z,36.40
2018-07-02T11:51:42.598Z,39.10
2018-07-02T11:54:10.216Z,40.90
2018-07-02T11:56:37.795Z,42.60
2018-07-02T11:59:05.485Z,44.30
2018-07-02T12:01:33.200Z,46.00
2018-07-02T12:04:00.843Z,47.50
2018-07-02T12:06:28.484Z,48.70
2018-07-02T12:08:56.131Z,49.90
2018-07-02T12:11:23.774Z,50.90
2018-07-02T12:13:52.275Z,51.70
2018-07-02T12:16:19.942Z,52.20
2018-07-02T12:18:47.620Z,52.70
2018-07-02T12:21:15.237Z,53.20
2018-07-02T12:23:42.843Z,53.80
2018-07-02T12:26:11.360Z,54.20
2018-07-02T12:28:39.850Z,54.70
2018-07-02T12:31:07.511Z,55.10
2018-07-02T12:33:35.368Z,55.20
2018-07-02T12:36:02.990Z,55.30
2018-07-02T12:38:30.577Z,55.30
2018-07-02T12:40:58.164Z,55.80
2018-07-02T12:43:25.836Z,56.00
2018-07-02T12:45:53.418Z,55.50
2018-07-02T12:48:21.083Z,55.50
2018-07-02T12:50:48.702Z,55.50
2018-07-02T12:53:16.415Z,55.70
2018-07-02T12:55:44.082Z,56.10
2018-07-02T12:58:11.671Z,56.50
2018-07-02T13:00:39.280Z,56.70
2018-07-02T13:03:06.831Z,57.00
2018-07-02T13:05:34.443Z,57.10
2018-07-02T13:08:02.789Z,57.30
2018-07-02T13:10:31.642Z,57.20
2018-07-02T13:12:59.288Z,57.30
2018-07-02T13:15:26.928Z,56.80
2018-07-02T13:17:54.831Z,56.30
2018-07-02T13:20:22.588Z,55.80
2018-07-02T13:22:50.209Z,55.40
2018-07-02T13:25:17.804Z,55.40
2018-07-02T13:27:45.476Z,54.80
2018-07-02T13:30:13.184Z,53.40
2018-07-02T13:32:40.768Z,51.40
2018-07-02T13:35:08.393Z,49.60
2018-07-02T13:37:36.009Z,49.10
2018-07-02T13:40:03.652Z,49.40
2018-07-02T13:42:32.028Z,50.40
2018-07-02T13:44:59.607Z,51.20
2018-07-02T13:47:27.171Z,51.90
2018-07-02T13:49:54.776Z,52.20
2018-07-02T13:52:22.323Z,52.10
2018-07-02T13:54:49.962Z,51.70
2018-07-02T13:57:17.582Z,51.00
2018-07-02T13:59:45.244Z,49.90
2018-07-02T14:02:12.899Z,48.60
2018-07-02T14:04:40.499Z,47.10
2018-07-02T14:09:35.642Z,43.20
2018-07-02T14:12:03.349Z,41.50
2018-07-02T14:14:30.974Z,40.50
2018-07-02T14:16:58.584Z,39.90
2018-07-02T14:19:26.128Z,39.50
2018-07-02T14:21:53.750Z,39.20
2018-07-02T14:24:21.378Z,39.20
2018-07-02T14:26:48.931Z,39.70
2018-07-02T14:29:16.587Z,40.60
2018-07-02T14:31:44.167Z,42.20
2018-07-02T14:36:39.310Z,45.30
2018-07-02T14:39:09.658Z,46.40
2018-07-02T14:41:37.285Z,47.00
2018-07-02T14:44:05.096Z,47.00
2018-07-02T14:46:32.739Z,45.70
2018-07-02T14:49:01.698Z,44.00
2018-07-02T14:51:29.351Z,43.80
2018-07-02T14:53:56.964Z,44.50
2018-07-02T14:56:24.660Z,45.50
2018-07-02T14:58:52.235Z,46.40
2018-07-02T15:01:19.810Z,47.20
2018-07-02T15:03:47.448Z,47.70
2018-07-02T15:06:15.031Z,47.70
2018-07-02T15:08:42.624Z,47.80
2018-07-02T15:11:10.252Z,47.30
2018-07-02T15:13:37.859Z,45.70
2018-07-02T15:16:05.508Z,44.10
2018-07-02T15:18:33.090Z,43.60
2018-07-02T15:21:00.688Z,44.00
2018-07-02T15:23:28.323Z,44.70
2018-07-02T15:28:23.481Z,44.90
2018-07-02T15:30:51.098Z,44.70
2018-07-02T15:33:18.742Z,44.50
2018-07-02T15:35:46.364Z,44.20
2018-07-02T15:38:13.955Z,43.60
2018-07-02T15:40:41.573Z,42.10
2018-07-02T15:43:09.198Z,40.60
2018-07-02T15:45:36.910Z,40.30
2018-07-02T15:48:04.579Z,40.70
2018-07-02T15:50:32.270Z,41.00
2018-07-02T15:52:59.918Z,41.20
2018-07-02T15:55:27.648Z,41.40
2018-07-02T15:57:55.290Z,41.30
2018-07-02T16:00:23.053Z,40.40
2018-07-02T16:05:18.206Z,38.70
2018-07-02T16:07:45.833Z,38.70
2018-07-02T16:12:42.171Z,38.60
2018-07-02T16:17:37.536Z,37.40
2018-07-02T16:20:05.193Z,36.60
2018-07-02T16:22:32.870Z,36.30
2018-07-02T16:25:00.540Z,36.20
2018-07-02T16:27:28.096Z,36.00
2018-07-02T16:29:55.762Z,35.60
2018-07-02T16:32:24.304Z,35.20
2018-07-02T16:34:51.919Z,34.70
2018-07-02T16:37:19.589Z,34.20
2018-07-02T16:39:47.214Z,34.00
2018-07-02T16:42:14.838Z,33.70
2018-07-02T16:44:42.485Z,33.50
2018-07-02T16:47:10.143Z,33.20
2018-07-02T16:49:37.782Z,32.90
2018-07-02T16:52:05.473Z,32.60
2018-07-02T16:54:34.452Z,32.20
2018-07-02T16:57:02.212Z,31.90
2018-07-02T16:59:29.861Z,31.70
2018-07-02T17:01:57.606Z,31.40
2018-07-02T17:04:25.302Z,31.20
2018-07-02T17:06:53.153Z,31.00
2018-07-02T17:09:24.281Z,30.80
2018-07-02T17:11:52.613Z,30.60
2018-07-02T17:16:47.884Z,30.20
2018-07-02T17:19:15.545Z,30.10
2018-07-02T17:21:43.378Z,29.90
2018-07-02T17:24:11.103Z,29.70
2018-07-02T17:26:38.864Z,29.60
2018-07-02T17:29:06.466Z,29.40
2018-07-02T17:31:34.133Z,29.30
2018-07-02T17:34:02.664Z,29.10
2018-07-02T17:36:30.609Z,29.10
2018-07-02T17:38:58.195Z,28.90
2018-07-02T17:41:25.840Z,28.70
2018-07-02T17:43:53.476Z,28.60
2018-07-02T17:46:21.238Z,28.50
2018-07-02T17:48:48.828Z,28.40
2018-07-02T17:51:16.440Z,28.30
2018-07-02T17:53:44.172Z,28.10
2018-07-02T17:56:11.820Z,28.10
2018-07-02T17:58:39.492Z,28.00
2018-07-02T18:01:07.233Z,27.90
2018-07-02T18:03:34.893Z,27.80
2018-07-02T18:06:02.679Z,27.70
2018-07-02T18:08:30.546Z,27.60
2018-07-02T18:10:58.267Z,27.50
2018-07-02T18:13:25.937Z,27.40
2018-07-02T18:15:53.541Z,27.30
2018-07-02T18:18:21.166Z,27.20
2018-07-02T18:20:48.791Z,27.20
2018-07-02T18:23:17.572Z,27.10
2018-07-02T18:25:45.245Z,26.90
2018-07-02T18:28:13.947Z,26.90
2018-07-02T18:30:41.671Z,26.80
2018-07-02T18:33:09.360Z,26.60
2018-07-02T18:35:37.110Z,26.50
2018-07-02T18:38:04.781Z,26.40
2018-07-02T18:40:48.950Z,26.30
2018-07-02T18:43:18.580Z,26.20
2018-07-02T18:45:46.388Z,26.00
2018-07-02T18:48:14.184Z,25.90
2018-07-02T18:50:41.902Z,25.90
2018-07-02T18:53:09.628Z,25.80
2018-07-02T18:55:37.616Z,25.60
2018-07-02T18:58:06.249Z,25.50
2018-07-02T19:00:34.045Z,25.40
2018-07-02T19:03:01.814Z,25.30
2018-07-02T19:05:29.555Z,25.30
2018-07-02T19:07:57.356Z,25.10
2018-07-02T19:10:25.009Z,25.00
2018-07-02T19:12:52.676Z,24.90
2018-07-02T19:15:20.399Z,24.90
2018-07-02T19:17:48.068Z,24.80
2018-07-02T19:20:15.779Z,24.70
2018-07-02T19:22:43.530Z,24.60
2018-07-02T19:25:11.191Z,24.60
2018-07-02T19:27:38.846Z,24.50
2018-07-02T19:30:06.670Z,24.40
2018-07-02T19:32:34.390Z,24.30
2018-07-02T19:35:02.120Z,24.10
2018-07-02T19:37:29.775Z,24.10
2018-07-02T19:39:57.519Z,24.00
2018-07-02T19:42:25.146Z,23.90
2018-07-02T19:44:52.756Z,23.80
2018-07-02T19:47:20.648Z,23.70
2018-07-02T19:49:48.248Z,23.60
2018-07-02T19:52:15.850Z,23.50
2018-07-02T19:54:43.544Z,23.40
2018-07-02T19:57:11.248Z,23.20
2018-07-02T19:59:41.303Z,23.20
2018-07-02T20:02:09.039Z,23.10
2018-07-02T20:04:36.829Z,22.90
2018-07-02T20:07:05.461Z,22.90
2018-07-02T20:09:33.314Z,22.80
2018-07-02T20:12:01.214Z,22.80
2018-07-02T20:14:28.973Z,22.70
2018-07-02T20:16:56.596Z,22.60
2018-07-02T20:19:24.359Z,22.50
2018-07-02T20:21:52.030Z,22.50
2018-07-02T20:24:21.642Z,22.50
2018-07-02T20:26:49.270Z,22.40
2018-07-02T20:29:16.989Z,22.30
2018-07-02T20:31:44.846Z,22.20
2018-07-02T20:34:12.478Z,22.20
2018-07-02T20:36:40.625Z,22.10
2018-07-02T20:39:09.641Z,22.10
2018-07-02T20:41:37.343Z,22.00
2018-07-02T20:44:05.076Z,21.90
2018-07-02T20:46:33.101Z,21.90
2018-07-02T20:49:00.748Z,21.80
2018-07-02T20:51:28.409Z,21.70
2018-07-02T20:53:56.049Z,21.70
2018-07-02T20:56:23.670Z,21.60
2018-07-02T20:58:51.279Z,21.60
2018-07-02T21:03:46.431Z,21.40
2018-07-02T21:06:14.098Z,21.40
2018-07-02T21:08:41.727Z,21.40
2018-07-02T21:11:09.387Z,21.30
2018-07-02T21:16:04.702Z,21.20
2018-07-02T21:18:32.310Z,21.10
2018-07-02T21:20:59.917Z,21.10
2018-07-02T21:23:27.514Z,21.00
2018-07-02T21:25:56.147Z,20.90
2018-07-02T21:28:23.804Z,20.90
2018-07-02T21:30:51.481Z,20.80
2018-07-02T21:33:19.130Z,20.80
2018-07-02T21:35:47.569Z,20.80
2018-07-02T21:38:15.193Z,20.70
2018-07-02T21:40:42.917Z,20.70
2018-07-02T21:43:10.572Z,20.60
2018-07-02T21:45:38.241Z,20.60
2018-07-02T21:48:05.890Z,20.50
2018-07-02T21:50:34.805Z,20.50
2018-07-02T21:53:02.424Z,20.50
2018-07-02T21:55:30.029Z,20.40
2018-07-02T21:57:57.647Z,20.40
2018-07-02T22:00:25.288Z,20.40
2018-07-02T22:02:53.607Z,20.40
2018-07-02T22:05:21.240Z,20.40
2018-07-02T22:07:49.856Z,20.40
2018-07-02T22:10:17.472Z,20.40
2018-07-02T22:12:45.125Z,20.30
2018-07-02T22:15:12.738Z,20.30
2018-07-02T22:17:42.080Z,20.20
2018-07-02T22:20:09.712Z,20.20
2018-07-02T22:22:37.333Z,20.20
2018-07-02T22:25:05.101Z,20.10
2018-07-02T22:27:33.636Z,20.10
2018-07-02T22:32:29.337Z,20.00
2018-07-02T22:34:56.901Z,20.00
2018-07-02T22:37:25.431Z,20.00
2018-07-02T22:39:53.080Z,20.00
2018-07-02T22:42:20.768Z,20.00
2018-07-02T22:44:48.389Z,19.90
2018-07-02T22:47:16.025Z,19.80
2018-07-02T22:49:43.636Z,19.80
2018-07-02T22:52:11.320Z,19.80
2018-07-02T22:54:38.960Z,19.70
2018-07-02T22:57:06.578Z,19.70
2018-07-02T22:59:34.187Z,19.70
2018-07-02T23:02:01.773Z,19.60
2018-07-02T23:04:29.393Z,19.60
2018-07-02T23:06:57.561Z,19.50
2018-07-02T23:09:25.139Z,19.50
2018-07-02T23:11:52.892Z,19.40
2018-07-02T23:14:20.490Z,19.40
2018-07-02T23:16:48.231Z,19.40
2018-07-02T23:19:15.883Z,19.30
2018-07-02T23:21:43.461Z,19.30
2018-07-02T23:24:11.132Z,19.30
2018-07-02T23:26:38.743Z,19.30
2018-07-02T23:29:06.300Z,19.30
2018-07-02T23:31:33.873Z,19.20
2018-07-02T23:34:01.512Z,19.30
2018-07-02T23:36:29.104Z,19.20
2018-07-02T23:38:57.524Z,19.10
2018-07-02T23:41:25.116Z,19.10
2018-07-02T23:43:52.780Z,19.10
2018-07-02T23:46:20.353Z,19.00
2018-07-02T23:48:47.952Z,19.00
2018-07-02T23:51:15.638Z,19.00
2018-07-02T23:53:43.189Z,19.00
2018-07-02T23:56:11.350Z,18.90
2018-07-02T23:58:39.691Z,18.90
